sensor_id;sensor_type;location;lat;lon;timestamp;temperature;humidity
28524;DHT22;15734;50.904;6.922;2022-11-20T00:01:40;4.20;99.90
28524;DHT22;15734;50.904;6.922;2022-11-20T00:04:06;4.20;99.90
28524;DHT22;15734;50.904;6.922;2022-11-20T00:06:33;4.20;99.90
28524;DHT22;15734;50.904;6.922;2022-11-20T00:08:59;4.30;99.90
28524;DHT22;15734;50.904;6.922;2022-11-20T00:11:27;4.20;99.90
28524;DHT22;15734;50.904;6.922;2022-11-20T00:13:57;4.20;99.90
28524;DHT22;15734;50.904;6.922;2022-11-20T00:16:24;4.20;99.90
28524;DHT22;15734;50.904;6.922;2022-11-20T00:18:50;4.10;99.90
28524;DHT22;15734;50.904;6.922;2022-11-20T00:21:21;4.10;99.90
28524;DHT22;15734;50.904;6.922;2022-11-20T00:23:48;4.20;99.90
28524;DHT22;15734;50.904;6.922;2022-11-20T00:26:15;4.10;99.90
28524;DHT22;15734;50.904;6.922;2022-11-20T00:28:42;4.10;99.90
28524;DHT22;15734;50.904;6.922;2022-11-20T00:31:15;4.10;99.90
28524;DHT22;15734;50.904;6.922;2022-11-20T00:33:42;4.00;99.90
28524;DHT22;15734;50.904;6.922;2022-11-20T00:36:13;4.10;99.90
28524;DHT22;15734;50.904;6.922;2022-11-20T00:38:40;4.20;99.90
28524;DHT22;15734;50.904;6.922;2022-11-20T00:41:08;4.10;99.90
28524;DHT22;15734;50.904;6.922;2022-11-20T00:43:34;4.20;99.90
28524;DHT22;15734;50.904;6.922;2022-11-20T00:46:09;4.10;99.90
28524;DHT22;15734;50.904;6.922;2022-11-20T00:48:35;4.10;99.90
28524;DHT22;15734;50.904;6.922;2022-11-20T00:51:01;4.20;99.90
28524;DHT22;15734;50.904;6.922;2022-11-20T00:53:27;4.10;99.90
28524;DHT22;15734;50.904;6.922;2022-11-20T00:55:57;4.20;99.90
28524;DHT22;15734;50.904;6.922;2022-11-20T01:40:06;4.10;99.90
28524;DHT22;15734;50.904;6.922;2022-11-20T01:42:32;4.00;99.90
28524;DHT22;15734;50.904;6.922;2022-11-20T01:45:58;4.00;99.90
28524;DHT22;15734;50.904;6.922;2022-11-20T01:48:28;4.00;99.90
28524;DHT22;15734;50.904;6.922;2022-11-20T01:50:55;4.00;99.90
28524;DHT22;15734;50.904;6.922;2022-11-20T01:53:28;4.00;99.90
28524;DHT22;15734;50.904;6.922;2022-11-20T01:55:56;4.10;99.90
28524;DHT22;15734;50.904;6.922;2022-11-20T01:58:28;4.10;99.90
28524;DHT22;15734;50.904;6.922;2022-11-20T02:00:55;3.90;99.90
28524;DHT22;15734;50.904;6.922;2022-11-20T02:03:21;3.90;99.90
28524;DHT22;15734;50.904;6.922;2022-11-20T02:06:01;4.00;99.90
28524;DHT22;15734;50.904;6.922;2022-11-20T02:08:29;3.80;99.90
28524;DHT22;15734;50.904;6.922;2022-11-20T02:10:55;3.70;99.90
28524;DHT22;15734;50.904;6.922;2022-11-20T02:13:21;3.70;99.90
28524;DHT22;15734;50.904;6.922;2022-11-20T02:16:08;3.60;99.90
28524;DHT22;15734;50.904;6.922;2022-11-20T02:18:33;3.50;99.90
28524;DHT22;15734;50.904;6.922;2022-11-20T02:24:03;3.50;99.90
28524;DHT22;15734;50.904;6.922;2022-11-20T02:26:33;3.60;99.90
28524;DHT22;15734;50.904;6.922;2022-11-20T02:29:00;3.50;99.90
28524;DHT22;15734;50.904;6.922;2022-11-20T02:31:27;3.60;99.90
28524;DHT22;15734;50.904;6.922;2022-11-20T02:33:56;3.60;99.90
28524;DHT22;15734;50.904;6.922;2022-11-20T02:36:24;3.60;99.90
28524;DHT22;15734;50.904;6.922;2022-11-20T02:38:51;3.60;99.90
28524;DHT22;15734;50.904;6.922;2022-11-20T02:41:17;3.60;99.90
28524;DHT22;15734;50.904;6.922;2022-11-20T02:43:43;3.60;99.90
28524;DHT22;15734;50.904;6.922;2022-11-20T02:46:08;3.60;99.90
28524;DHT22;15734;50.904;6.922;2022-11-20T02:48:34;3.60;99.90
28524;DHT22;15734;50.904;6.922;2022-11-20T02:51:00;3.70;99.90
28524;DHT22;15734;50.904;6.922;2022-11-20T02:53:25;3.70;99.90
28524;DHT22;15734;50.904;6.922;2022-11-20T02:55:51;3.80;99.90
28524;DHT22;15734;50.904;6.922;2022-11-20T02:58:16;3.80;99.90
28524;DHT22;15734;50.904;6.922;2022-11-20T03:00:42;3.70;99.90
28524;DHT22;15734;50.904;6.922;2022-11-20T03:03:07;3.70;99.90
28524;DHT22;15734;50.904;6.922;2022-11-20T03:05:33;3.60;99.90
28524;DHT22;15734;50.904;6.922;2022-11-20T03:07:58;3.60;99.90
28524;DHT22;15734;50.904;6.922;2022-11-20T03:10:24;3.60;99.90
28524;DHT22;15734;50.904;6.922;2022-11-20T03:12:55;3.60;99.90
28524;DHT22;15734;50.904;6.922;2022-11-20T03:15:23;3.60;99.90
28524;DHT22;15734;50.904;6.922;2022-11-20T03:17:48;3.60;99.90
28524;DHT22;15734;50.904;6.922;2022-11-20T03:20:14;3.70;99.90
28524;DHT22;15734;50.904;6.922;2022-11-20T03:22:40;3.80;99.90
28524;DHT22;15734;50.904;6.922;2022-11-20T03:25:05;3.80;99.90
28524;DHT22;15734;50.904;6.922;2022-11-20T03:27:33;3.80;99.90
28524;DHT22;15734;50.904;6.922;2022-11-20T03:29:59;3.80;99.90
28524;DHT22;15734;50.904;6.922;2022-11-20T03:32:25;3.80;99.90
28524;DHT22;15734;50.904;6.922;2022-11-20T03:34:50;3.80;99.90
28524;DHT22;15734;50.904;6.922;2022-11-20T03:37:16;3.70;99.90
28524;DHT22;15734;50.904;6.922;2022-11-20T03:39:41;3.70;99.90
28524;DHT22;15734;50.904;6.922;2022-11-20T03:42:08;3.60;99.90
28524;DHT22;15734;50.904;6.922;2022-11-20T03:44:53;3.60;99.90
28524;DHT22;15734;50.904;6.922;2022-11-20T03:47:19;3.70;99.90
28524;DHT22;15734;50.904;6.922;2022-11-20T03:49:44;3.70;99.90
28524;DHT22;15734;50.904;6.922;2022-11-20T03:52:10;3.70;99.90
28524;DHT22;15734;50.904;6.922;2022-11-20T03:54:35;3.80;99.90
28524;DHT22;15734;50.904;6.922;2022-11-20T03:57:01;3.70;99.90
28524;DHT22;15734;50.904;6.922;2022-11-20T03:59:26;3.70;99.90
28524;DHT22;15734;50.904;6.922;2022-11-20T04:01:52;3.80;99.90
28524;DHT22;15734;50.904;6.922;2022-11-20T04:04:17;3.70;99.90
28524;DHT22;15734;50.904;6.922;2022-11-20T04:06:43;3.80;99.90
28524;DHT22;15734;50.904;6.922;2022-11-20T04:09:08;3.90;99.90
28524;DHT22;15734;50.904;6.922;2022-11-20T04:11:36;3.90;99.90
28524;DHT22;15734;50.904;6.922;2022-11-20T04:14:04;4.00;99.90
28524;DHT22;15734;50.904;6.922;2022-11-20T04:16:33;3.90;99.90
28524;DHT22;15734;50.904;6.922;2022-11-20T04:19:01;3.80;99.90
28524;DHT22;15734;50.904;6.922;2022-11-20T04:21:27;3.90;99.90
28524;DHT22;15734;50.904;6.922;2022-11-20T04:23:54;3.80;99.90
28524;DHT22;15734;50.904;6.922;2022-11-20T04:26:20;3.80;99.90
28524;DHT22;15734;50.904;6.922;2022-11-20T04:28:46;3.70;99.90
28524;DHT22;15734;50.904;6.922;2022-11-20T04:31:14;3.70;99.90
28524;DHT22;15734;50.904;6.922;2022-11-20T04:33:40;3.60;99.90
28524;DHT22;15734;50.904;6.922;2022-11-20T04:36:10;3.60;99.90
28524;DHT22;15734;50.904;6.922;2022-11-20T04:38:35;3.60;99.90
28524;DHT22;15734;50.904;6.922;2022-11-20T04:41:03;3.50;99.90
28524;DHT22;15734;50.904;6.922;2022-11-20T04:43:29;3.50;99.90
28524;DHT22;15734;50.904;6.922;2022-11-20T04:45:56;3.40;99.90
28524;DHT22;15734;50.904;6.922;2022-11-20T04:48:22;3.50;99.90
28524;DHT22;15734;50.904;6.922;2022-11-20T04:50:48;3.60;99.90
28524;DHT22;15734;50.904;6.922;2022-11-20T04:53:14;3.70;99.90
28524;DHT22;15734;50.904;6.922;2022-11-20T04:55:39;3.70;99.90
28524;DHT22;15734;50.904;6.922;2022-11-20T04:58:05;3.80;99.90
28524;DHT22;15734;50.904;6.922;2022-11-20T05:00:30;3.90;99.90
28524;DHT22;15734;50.904;6.922;2022-11-20T05:02:56;4.00;99.90
28524;DHT22;15734;50.904;6.922;2022-11-20T05:05:21;4.00;99.90
28524;DHT22;15734;50.904;6.922;2022-11-20T05:07:47;4.00;99.90
28524;DHT22;15734;50.904;6.922;2022-11-20T05:10:13;4.00;99.90
28524;DHT22;15734;50.904;6.922;2022-11-20T05:12:38;4.10;99.90
28524;DHT22;15734;50.904;6.922;2022-11-20T05:15:04;4.10;99.90
28524;DHT22;15734;50.904;6.922;2022-11-20T05:17:29;4.20;99.90
28524;DHT22;15734;50.904;6.922;2022-11-20T05:19:55;4.20;99.90
28524;DHT22;15734;50.904;6.922;2022-11-20T05:22:20;4.10;99.90
28524;DHT22;15734;50.904;6.922;2022-11-20T05:24:46;4.10;99.90
28524;DHT22;15734;50.904;6.922;2022-11-20T05:27:11;4.10;99.90
28524;DHT22;15734;50.904;6.922;2022-11-20T05:29:37;4.10;99.90
28524;DHT22;15734;50.904;6.922;2022-11-20T05:32:03;4.10;99.90
28524;DHT22;15734;50.904;6.922;2022-11-20T05:34:28;4.10;99.90
28524;DHT22;15734;50.904;6.922;2022-11-20T05:36:54;4.10;99.90
28524;DHT22;15734;50.904;6.922;2022-11-20T05:39:19;4.10;99.90
28524;DHT22;15734;50.904;6.922;2022-11-20T05:41:45;4.10;99.90
28524;DHT22;15734;50.904;6.922;2022-11-20T05:44:11;4.10;99.90
28524;DHT22;15734;50.904;6.922;2022-11-20T05:46:36;4.20;99.90
28524;DHT22;15734;50.904;6.922;2022-11-20T05:49:02;4.20;99.90
28524;DHT22;15734;50.904;6.922;2022-11-20T05:51:27;4.30;99.90
28524;DHT22;15734;50.904;6.922;2022-11-20T05:53:53;4.30;99.90
28524;DHT22;15734;50.904;6.922;2022-11-20T05:56:20;4.30;99.90
28524;DHT22;15734;50.904;6.922;2022-11-20T05:58:46;4.20;99.90
28524;DHT22;15734;50.904;6.922;2022-11-20T06:01:21;4.00;99.90
28524;DHT22;15734;50.904;6.922;2022-11-20T06:03:47;3.90;99.90
28524;DHT22;15734;50.904;6.922;2022-11-20T06:06:14;4.00;99.90
28524;DHT22;15734;50.904;6.922;2022-11-20T06:08:40;4.10;99.90
28524;DHT22;15734;50.904;6.922;2022-11-20T06:11:07;4.10;99.90
28524;DHT22;15734;50.904;6.922;2022-11-20T06:13:33;4.20;99.90
28524;DHT22;15734;50.904;6.922;2022-11-20T06:16:00;4.20;99.90
28524;DHT22;15734;50.904;6.922;2022-11-20T06:18:27;4.20;99.90
28524;DHT22;15734;50.904;6.922;2022-11-20T06:21:07;4.30;99.90
28524;DHT22;15734;50.904;6.922;2022-11-20T06:23:34;4.20;99.90
28524;DHT22;15734;50.904;6.922;2022-11-20T06:26:06;4.20;99.90
28524;DHT22;15734;50.904;6.922;2022-11-20T06:28:32;4.30;99.90
28524;DHT22;15734;50.904;6.922;2022-11-20T06:30:58;4.40;99.90
28524;DHT22;15734;50.904;6.922;2022-11-20T06:33:23;4.40;99.90
28524;DHT22;15734;50.904;6.922;2022-11-20T06:35:49;4.20;99.90
28524;DHT22;15734;50.904;6.922;2022-11-20T06:40:51;4.30;99.90
28524;DHT22;15734;50.904;6.922;2022-11-20T06:43:16;4.40;99.90
28524;DHT22;15734;50.904;6.922;2022-11-20T06:45:42;4.30;99.90
28524;DHT22;15734;50.904;6.922;2022-11-20T06:48:08;4.30;99.90
28524;DHT22;15734;50.904;6.922;2022-11-20T06:50:37;4.30;99.90
28524;DHT22;15734;50.904;6.922;2022-11-20T06:53:04;4.30;99.90
28524;DHT22;15734;50.904;6.922;2022-11-20T06:55:31;4.30;99.90
28524;DHT22;15734;50.904;6.922;2022-11-20T06:57:57;4.30;99.90
28524;DHT22;15734;50.904;6.922;2022-11-20T07:00:22;4.30;99.90
28524;DHT22;15734;50.904;6.922;2022-11-20T07:02:48;4.30;99.90
28524;DHT22;15734;50.904;6.922;2022-11-20T07:05:14;4.20;99.90
28524;DHT22;15734;50.904;6.922;2022-11-20T07:07:39;4.30;99.90
28524;DHT22;15734;50.904;6.922;2022-11-20T07:10:05;4.30;99.90
28524;DHT22;15734;50.904;6.922;2022-11-20T07:12:31;4.20;99.90
28524;DHT22;15734;50.904;6.922;2022-11-20T07:14:56;4.10;99.90
28524;DHT22;15734;50.904;6.922;2022-11-20T07:17:22;4.10;99.90
28524;DHT22;15734;50.904;6.922;2022-11-20T07:19:47;4.00;99.90
28524;DHT22;15734;50.904;6.922;2022-11-20T07:22:13;4.00;99.90
28524;DHT22;15734;50.904;6.922;2022-11-20T07:24:38;4.00;99.90
28524;DHT22;15734;50.904;6.922;2022-11-20T07:27:04;4.00;99.90
28524;DHT22;15734;50.904;6.922;2022-11-20T07:29:30;4.00;99.90
28524;DHT22;15734;50.904;6.922;2022-11-20T07:31:56;4.00;99.90
28524;DHT22;15734;50.904;6.922;2022-11-20T07:34:22;4.00;99.90
28524;DHT22;15734;50.904;6.922;2022-11-20T07:36:47;4.10;99.90
28524;DHT22;15734;50.904;6.922;2022-11-20T07:39:13;4.00;99.90
28524;DHT22;15734;50.904;6.922;2022-11-20T07:41:38;4.10;99.90
28524;DHT22;15734;50.904;6.922;2022-11-20T07:44:04;4.10;99.90
28524;DHT22;15734;50.904;6.922;2022-11-20T07:46:30;4.20;99.90
28524;DHT22;15734;50.904;6.922;2022-11-20T07:48:56;4.20;99.90
28524;DHT22;15734;50.904;6.922;2022-11-20T07:51:21;4.20;99.90
28524;DHT22;15734;50.904;6.922;2022-11-20T07:53:47;4.30;99.90
28524;DHT22;15734;50.904;6.922;2022-11-20T07:56:13;4.30;99.90
28524;DHT22;15734;50.904;6.922;2022-11-20T07:58:39;4.40;99.90
28524;DHT22;15734;50.904;6.922;2022-11-20T08:01:06;4.40;99.90
28524;DHT22;15734;50.904;6.922;2022-11-20T08:03:32;4.40;99.90
28524;DHT22;15734;50.904;6.922;2022-11-20T08:05:59;4.30;99.90
28524;DHT22;15734;50.904;6.922;2022-11-20T08:08:25;4.40;99.90
28524;DHT22;15734;50.904;6.922;2022-11-20T08:10:51;4.40;99.90
28524;DHT22;15734;50.904;6.922;2022-11-20T08:13:16;4.40;99.90
28524;DHT22;15734;50.904;6.922;2022-11-20T08:16:01;4.40;99.90
28524;DHT22;15734;50.904;6.922;2022-11-20T08:18:26;4.50;99.90
28524;DHT22;15734;50.904;6.922;2022-11-20T08:20:52;4.60;99.90
28524;DHT22;15734;50.904;6.922;2022-11-20T08:23:17;4.70;99.90
28524;DHT22;15734;50.904;6.922;2022-11-20T08:25:43;4.70;99.90
28524;DHT22;15734;50.904;6.922;2022-11-20T08:28:09;4.70;99.90
28524;DHT22;15734;50.904;6.922;2022-11-20T08:30:36;4.70;99.90
28524;DHT22;15734;50.904;6.922;2022-11-20T08:33:03;4.80;99.90
28524;DHT22;15734;50.904;6.922;2022-11-20T08:35:33;4.80;99.90
28524;DHT22;15734;50.904;6.922;2022-11-20T08:37:59;4.80;99.90
28524;DHT22;15734;50.904;6.922;2022-11-20T08:40:24;4.90;99.90
28524;DHT22;15734;50.904;6.922;2022-11-20T08:42:51;4.80;99.90
28524;DHT22;15734;50.904;6.922;2022-11-20T08:45:18;4.70;99.90
28524;DHT22;15734;50.904;6.922;2022-11-20T08:47:44;4.80;99.90
28524;DHT22;15734;50.904;6.922;2022-11-20T08:50:11;4.80;99.90
28524;DHT22;15734;50.904;6.922;2022-11-20T08:52:37;5.00;99.90
28524;DHT22;15734;50.904;6.922;2022-11-20T08:55:04;5.20;99.90
28524;DHT22;15734;50.904;6.922;2022-11-20T08:57:34;5.30;99.90
28524;DHT22;15734;50.904;6.922;2022-11-20T09:00:00;5.10;99.90
28524;DHT22;15734;50.904;6.922;2022-11-20T09:02:25;5.10;99.90
28524;DHT22;15734;50.904;6.922;2022-11-20T09:04:51;5.20;99.90
28524;DHT22;15734;50.904;6.922;2022-11-20T09:07:16;5.30;99.90
28524;DHT22;15734;50.904;6.922;2022-11-20T09:09:42;5.40;99.90
28524;DHT22;15734;50.904;6.922;2022-11-20T09:12:07;5.40;99.90
28524;DHT22;15734;50.904;6.922;2022-11-20T09:14:33;5.40;99.90
28524;DHT22;15734;50.904;6.922;2022-11-20T09:16:59;5.40;99.90
28524;DHT22;15734;50.904;6.922;2022-11-20T09:19:25;5.40;99.90
28524;DHT22;15734;50.904;6.922;2022-11-20T09:21:50;5.30;99.90
28524;DHT22;15734;50.904;6.922;2022-11-20T09:24:16;5.30;99.90
28524;DHT22;15734;50.904;6.922;2022-11-20T09:26:43;5.40;99.90
28524;DHT22;15734;50.904;6.922;2022-11-20T09:29:09;5.40;99.90
28524;DHT22;15734;50.904;6.922;2022-11-20T09:31:34;5.30;99.90
28524;DHT22;15734;50.904;6.922;2022-11-20T09:34:00;5.40;99.90
28524;DHT22;15734;50.904;6.922;2022-11-20T09:36:25;5.50;99.90
28524;DHT22;15734;50.904;6.922;2022-11-20T09:38:51;5.50;99.90
28524;DHT22;15734;50.904;6.922;2022-11-20T09:44:51;5.60;99.90
28524;DHT22;15734;50.904;6.922;2022-11-20T09:52:22;5.90;99.90
28524;DHT22;15734;50.904;6.922;2022-11-20T09:54:50;5.80;99.90
28524;DHT22;15734;50.904;6.922;2022-11-20T09:57:23;5.70;99.90
28524;DHT22;15734;50.904;6.922;2022-11-20T09:59:58;5.50;99.90
28524;DHT22;15734;50.904;6.922;2022-11-20T10:02:28;5.60;99.90
28524;DHT22;15734;50.904;6.922;2022-11-20T10:05:19;5.60;99.90
28524;DHT22;15734;50.904;6.922;2022-11-20T10:08:21;5.70;99.90
28524;DHT22;15734;50.904;6.922;2022-11-20T10:11:10;5.70;99.90
28524;DHT22;15734;50.904;6.922;2022-11-20T10:17:01;5.60;99.90
28524;DHT22;15734;50.904;6.922;2022-11-20T10:20:00;5.50;99.90
28524;DHT22;15734;50.904;6.922;2022-11-20T10:22:45;5.60;99.90
28524;DHT22;15734;50.904;6.922;2022-11-20T10:25:20;5.70;99.90
28524;DHT22;15734;50.904;6.922;2022-11-20T10:28:15;5.80;99.90
28524;DHT22;15734;50.904;6.922;2022-11-20T10:30:43;5.90;99.90
28524;DHT22;15734;50.904;6.922;2022-11-20T10:33:23;6.00;99.90
28524;DHT22;15734;50.904;6.922;2022-11-20T10:35:50;6.10;99.90
28524;DHT22;15734;50.904;6.922;2022-11-20T10:38:23;6.20;99.90
28524;DHT22;15734;50.904;6.922;2022-11-20T10:40:54;6.20;99.90
28524;DHT22;15734;50.904;6.922;2022-11-20T10:43:39;6.20;99.90
28524;DHT22;15734;50.904;6.922;2022-11-20T10:46:13;6.20;99.90
28524;DHT22;15734;50.904;6.922;2022-11-20T10:48:43;6.10;99.90
28524;DHT22;15734;50.904;6.922;2022-11-20T10:51:35;6.10;99.90
28524;DHT22;15734;50.904;6.922;2022-11-20T10:54:42;6.20;99.90
28524;DHT22;15734;50.904;6.922;2022-11-20T11:00:06;5.90;99.90
28524;DHT22;15734;50.904;6.922;2022-11-20T11:02:53;5.90;99.90
28524;DHT22;15734;50.904;6.922;2022-11-20T11:08:13;5.90;99.90
28524;DHT22;15734;50.904;6.922;2022-11-20T11:10:58;5.80;99.90
28524;DHT22;15734;50.904;6.922;2022-11-20T11:13:26;5.80;99.90
28524;DHT22;15734;50.904;6.922;2022-11-20T11:15:52;5.80;99.90
28524;DHT22;15734;50.904;6.922;2022-11-20T11:18:29;5.90;99.90
28524;DHT22;15734;50.904;6.922;2022-11-20T11:20:59;5.90;99.90
28524;DHT22;15734;50.904;6.922;2022-11-20T11:23:35;5.90;99.90
28524;DHT22;15734;50.904;6.922;2022-11-20T11:26:05;6.10;99.90
28524;DHT22;15734;50.904;6.922;2022-11-20T11:28:31;6.10;99.90
28524;DHT22;15734;50.904;6.922;2022-11-20T11:30:57;6.20;99.90
28524;DHT22;15734;50.904;6.922;2022-11-20T11:33:25;6.30;99.90
28524;DHT22;15734;50.904;6.922;2022-11-20T11:35:53;6.20;99.90
28524;DHT22;15734;50.904;6.922;2022-11-20T11:38:42;6.40;99.90
28524;DHT22;15734;50.904;6.922;2022-11-20T11:41:20;6.40;99.90
28524;DHT22;15734;50.904;6.922;2022-11-20T11:43:56;6.40;99.90
28524;DHT22;15734;50.904;6.922;2022-11-20T11:46:51;6.40;99.90
28524;DHT22;15734;50.904;6.922;2022-11-20T11:49:19;6.40;99.90
28524;DHT22;15734;50.904;6.922;2022-11-20T11:55:01;6.20;99.90
28524;DHT22;15734;50.904;6.922;2022-11-20T12:00:18;6.20;99.90
28524;DHT22;15734;50.904;6.922;2022-11-20T12:05:36;6.20;99.90
28524;DHT22;15734;50.904;6.922;2022-11-20T12:11:04;6.30;99.90
28524;DHT22;15734;50.904;6.922;2022-11-20T12:13:44;6.40;99.90
28524;DHT22;15734;50.904;6.922;2022-11-20T12:16:13;6.40;99.90
28524;DHT22;15734;50.904;6.922;2022-11-20T12:18:40;6.40;99.90
28524;DHT22;15734;50.904;6.922;2022-11-20T12:30:02;6.10;99.90
28524;DHT22;15734;50.904;6.922;2022-11-20T12:33:06;6.20;99.90
28524;DHT22;15734;50.904;6.922;2022-11-20T12:36:02;6.30;99.90
28524;DHT22;15734;50.904;6.922;2022-11-20T12:38:53;6.40;99.90
28524;DHT22;15734;50.904;6.922;2022-11-20T12:41:46;6.50;99.90
28524;DHT22;15734;50.904;6.922;2022-11-20T12:53:54;6.50;99.90
28524;DHT22;15734;50.904;6.922;2022-11-20T13:02:30;6.50;99.90
28524;DHT22;15734;50.904;6.922;2022-11-20T13:05:16;6.60;99.90
28524;DHT22;15734;50.904;6.922;2022-11-20T13:07:44;6.60;99.90
28524;DHT22;15734;50.904;6.922;2022-11-20T13:16:19;6.80;99.90
28524;DHT22;15734;50.904;6.922;2022-11-20T13:18:47;6.80;99.90
28524;DHT22;15734;50.904;6.922;2022-11-20T13:21:15;6.80;99.90
28524;DHT22;15734;50.904;6.922;2022-11-20T13:23:40;6.90;99.90
28524;DHT22;15734;50.904;6.922;2022-11-20T13:26:21;6.90;99.90
28524;DHT22;15734;50.904;6.922;2022-11-20T13:28:58;6.90;99.90
28524;DHT22;15734;50.904;6.922;2022-11-20T13:31:32;7.00;99.90
28524;DHT22;15734;50.904;6.922;2022-11-20T13:34:01;7.00;99.90
28524;DHT22;15734;50.904;6.922;2022-11-20T13:36:28;6.90;99.90
28524;DHT22;15734;50.904;6.922;2022-11-20T13:38:55;7.00;99.90
28524;DHT22;15734;50.904;6.922;2022-11-20T13:41:31;7.00;99.90
28524;DHT22;15734;50.904;6.922;2022-11-20T13:46:49;6.80;99.90
28524;DHT22;15734;50.904;6.922;2022-11-20T13:51:53;6.80;99.90
28524;DHT22;15734;50.904;6.922;2022-11-20T13:54:47;6.70;99.90
28524;DHT22;15734;50.904;6.922;2022-11-20T13:57:42;6.70;99.90
28524;DHT22;15734;50.904;6.922;2022-11-20T14:00:22;6.70;99.90
28524;DHT22;15734;50.904;6.922;2022-11-20T14:05:24;6.70;99.90
28524;DHT22;15734;50.904;6.922;2022-11-20T14:07:51;6.70;99.90
28524;DHT22;15734;50.904;6.922;2022-11-20T14:10:26;6.70;99.90
28524;DHT22;15734;50.904;6.922;2022-11-20T14:12:52;6.70;99.90
28524;DHT22;15734;50.904;6.922;2022-11-20T14:15:29;6.70;99.90
28524;DHT22;15734;50.904;6.922;2022-11-20T14:17:55;6.70;99.90
28524;DHT22;15734;50.904;6.922;2022-11-20T14:20:27;6.70;99.90
28524;DHT22;15734;50.904;6.922;2022-11-20T14:22:54;6.70;99.90
28524;DHT22;15734;50.904;6.922;2022-11-20T14:25:22;6.70;99.90
28524;DHT22;15734;50.904;6.922;2022-11-20T14:27:57;6.70;99.90
28524;DHT22;15734;50.904;6.922;2022-11-20T14:30:43;6.70;99.90
28524;DHT22;15734;50.904;6.922;2022-11-20T14:33:12;6.80;99.90
28524;DHT22;15734;50.904;6.922;2022-11-20T14:35:44;6.70;99.90
28524;DHT22;15734;50.904;6.922;2022-11-20T14:38:13;6.70;99.90
28524;DHT22;15734;50.904;6.922;2022-11-20T14:40:39;6.70;99.90
28524;DHT22;15734;50.904;6.922;2022-11-20T14:43:26;6.70;99.90
28524;DHT22;15734;50.904;6.922;2022-11-20T14:46:04;6.70;99.90
28524;DHT22;15734;50.904;6.922;2022-11-20T14:48:34;6.70;99.90
28524;DHT22;15734;50.904;6.922;2022-11-20T14:51:00;6.60;99.90
28524;DHT22;15734;50.904;6.922;2022-11-20T14:53:26;6.60;99.90
28524;DHT22;15734;50.904;6.922;2022-11-20T14:55:58;6.50;99.90
28524;DHT22;15734;50.904;6.922;2022-11-20T14:58:30;6.60;99.90
28524;DHT22;15734;50.904;6.922;2022-11-20T15:00:59;6.60;99.90
28524;DHT22;15734;50.904;6.922;2022-11-20T15:03:38;6.60;99.90
28524;DHT22;15734;50.904;6.922;2022-11-20T15:06:06;6.60;99.90
28524;DHT22;15734;50.904;6.922;2022-11-20T15:08:32;6.60;99.90
28524;DHT22;15734;50.904;6.922;2022-11-20T15:10:58;6.60;99.90
28524;DHT22;15734;50.904;6.922;2022-11-20T15:13:33;6.60;99.90
28524;DHT22;15734;50.904;6.922;2022-11-20T15:16:00;6.60;99.90
28524;DHT22;15734;50.904;6.922;2022-11-20T15:18:37;6.50;99.90
28524;DHT22;15734;50.904;6.922;2022-11-20T15:21:10;6.50;99.90
28524;DHT22;15734;50.904;6.922;2022-11-20T15:23:36;6.50;99.90
28524;DHT22;15734;50.904;6.922;2022-11-20T15:26:01;6.50;99.90
28524;DHT22;15734;50.904;6.922;2022-11-20T15:28:35;6.50;99.90
28524;DHT22;15734;50.904;6.922;2022-11-20T15:31:03;6.50;99.90
28524;DHT22;15734;50.904;6.922;2022-11-20T15:33:29;6.50;99.90
28524;DHT22;15734;50.904;6.922;2022-11-20T15:35:55;6.50;99.90
28524;DHT22;15734;50.904;6.922;2022-11-20T15:38:21;6.50;99.90
28524;DHT22;15734;50.904;6.922;2022-11-20T15:40:49;6.50;99.90
28524;DHT22;15734;50.904;6.922;2022-11-20T15:43:15;6.40;99.90
28524;DHT22;15734;50.904;6.922;2022-11-20T15:45:49;6.50;99.90
28524;DHT22;15734;50.904;6.922;2022-11-20T15:48:24;6.50;99.90
28524;DHT22;15734;50.904;6.922;2022-11-20T15:53:23;6.50;99.90
28524;DHT22;15734;50.904;6.922;2022-11-20T15:55:49;6.50;99.90
28524;DHT22;15734;50.904;6.922;2022-11-20T15:58:15;6.60;99.90
28524;DHT22;15734;50.904;6.922;2022-11-20T16:00:42;6.60;99.90
28524;DHT22;15734;50.904;6.922;2022-11-20T16:03:12;6.60;99.90
28524;DHT22;15734;50.904;6.922;2022-11-20T16:05:38;6.60;99.90
28524;DHT22;15734;50.904;6.922;2022-11-20T16:08:04;6.60;99.90
28524;DHT22;15734;50.904;6.922;2022-11-20T16:10:30;6.60;99.90
28524;DHT22;15734;50.904;6.922;2022-11-20T16:12:55;6.60;99.90
28524;DHT22;15734;50.904;6.922;2022-11-20T16:15:40;6.60;99.90
28524;DHT22;15734;50.904;6.922;2022-11-20T16:18:22;6.60;99.90
28524;DHT22;15734;50.904;6.922;2022-11-20T16:20:54;6.60;99.90
28524;DHT22;15734;50.904;6.922;2022-11-20T16:23:20;6.60;99.90
28524;DHT22;15734;50.904;6.922;2022-11-20T16:25:47;6.60;99.90
28524;DHT22;15734;50.904;6.922;2022-11-20T16:28:13;6.50;99.90
28524;DHT22;15734;50.904;6.922;2022-11-20T16:30:42;6.50;99.90
28524;DHT22;15734;50.904;6.922;2022-11-20T16:33:12;6.50;99.90
28524;DHT22;15734;50.904;6.922;2022-11-20T16:35:38;6.60;99.90
28524;DHT22;15734;50.904;6.922;2022-11-20T16:38:04;6.60;99.90
28524;DHT22;15734;50.904;6.922;2022-11-20T16:40:30;6.60;99.90
28524;DHT22;15734;50.904;6.922;2022-11-20T16:42:55;6.60;99.90
28524;DHT22;15734;50.904;6.922;2022-11-20T16:45:22;6.70;99.90
28524;DHT22;15734;50.904;6.922;2022-11-20T16:47:48;6.70;99.90
28524;DHT22;15734;50.904;6.922;2022-11-20T16:50:14;6.70;99.90
28524;DHT22;15734;50.904;6.922;2022-11-20T16:52:40;6.70;99.90
28524;DHT22;15734;50.904;6.922;2022-11-20T16:55:05;6.70;99.90
28524;DHT22;15734;50.904;6.922;2022-11-20T16:57:31;6.80;99.90
28524;DHT22;15734;50.904;6.922;2022-11-20T17:00:00;6.80;99.90
28524;DHT22;15734;50.904;6.922;2022-11-20T17:02:25;6.80;99.90
28524;DHT22;15734;50.904;6.922;2022-11-20T17:04:52;6.80;99.90
28524;DHT22;15734;50.904;6.922;2022-11-20T17:07:18;6.90;99.90
28524;DHT22;15734;50.904;6.922;2022-11-20T17:09:44;6.90;99.90
28524;DHT22;15734;50.904;6.922;2022-11-20T17:12:09;6.90;99.90
28524;DHT22;15734;50.904;6.922;2022-11-20T17:14:35;6.90;99.90
28524;DHT22;15734;50.904;6.922;2022-11-20T17:17:02;6.90;99.90
28524;DHT22;15734;50.904;6.922;2022-11-20T17:19:27;6.90;99.90
28524;DHT22;15734;50.904;6.922;2022-11-20T17:22:05;6.90;99.90
28524;DHT22;15734;50.904;6.922;2022-11-20T17:24:31;6.90;99.90
28524;DHT22;15734;50.904;6.922;2022-11-20T17:26:57;6.90;99.90
28524;DHT22;15734;50.904;6.922;2022-11-20T17:29:22;6.90;99.90
28524;DHT22;15734;50.904;6.922;2022-11-20T17:31:49;6.90;99.90
28524;DHT22;15734;50.904;6.922;2022-11-20T17:34:14;7.00;99.90
28524;DHT22;15734;50.904;6.922;2022-11-20T17:36:41;6.90;99.90
28524;DHT22;15734;50.904;6.922;2022-11-20T17:39:13;7.00;99.90
28524;DHT22;15734;50.904;6.922;2022-11-20T17:41:41;7.00;99.90
28524;DHT22;15734;50.904;6.922;2022-11-20T17:44:09;7.00;99.90
28524;DHT22;15734;50.904;6.922;2022-11-20T17:46:34;7.00;99.90
28524;DHT22;15734;50.904;6.922;2022-11-20T17:49:01;7.00;99.90
28524;DHT22;15734;50.904;6.922;2022-11-20T17:51:29;7.00;99.90
28524;DHT22;15734;50.904;6.922;2022-11-20T17:53:58;7.10;99.90
28524;DHT22;15734;50.904;6.922;2022-11-20T17:56:24;7.00;99.90